createdAt,value
2023-06-01T00:00:03.846Z,99849.41
2023-06-01T00:02:37.098Z,99838.28
2023-06-01T00:05:08.247Z,99833.44
2023-06-01T00:07:40.201Z,99819.56
2023-06-01T00:10:10.876Z,99844.09
2023-06-01T00:12:38.674Z,99838.91
2023-06-01T00:15:06.753Z,99831.06
2023-06-01T00:17:36.427Z,99834.72
2023-06-01T00:20:10.228Z,99837.25
2023-06-01T00:22:40.231Z,99834.81
2023-06-01T00:25:10.215Z,99829.16
2023-06-01T00:27:38.185Z,99843.19
2023-06-01T00:30:06.306Z,99835.28
2023-06-01T00:32:34.517Z,99824.56
2023-06-01T00:35:01.855Z,99836.97
2023-06-01T00:37:30.000Z,99830.69
2023-06-01T00:39:57.345Z,99837.94
2023-06-01T00:42:25.693Z,99842.91
2023-06-01T00:45:00.372Z,99850.75
2023-06-01T00:47:28.580Z,99837.50
2023-06-01T00:49:56.273Z,99848.94
2023-06-01T00:52:25.607Z,99839.13
2023-06-01T00:54:54.570Z,99849.00
2023-06-01T00:57:27.726Z,99847.22
2023-06-01T00:59:56.287Z,99844.66
2023-06-01T01:02:26.241Z,99835.69
2023-06-01T01:04:57.533Z,99833.66
2023-06-01T01:07:48.889Z,99850.91
2023-06-01T01:10:40.716Z,99844.78
2023-06-01T01:13:14.907Z,99841.38
2023-06-01T01:15:51.520Z,99846.19
2023-06-01T01:18:46.638Z,99846.50
2023-06-01T01:21:23.906Z,99845.28
2023-06-01T01:24:42.780Z,99844.16
2023-06-01T01:27:38.767Z,99843.50
2023-06-01T01:30:08.831Z,99840.63
2023-06-01T01:32:41.715Z,99842.28
2023-06-01T01:35:11.499Z,99835.56
2023-06-01T01:37:41.580Z,99836.69
2023-06-01T01:40:11.768Z,99825.81
2023-06-01T01:42:39.844Z,99840.06
2023-06-01T01:45:09.438Z,99832.69
2023-06-01T01:47:49.645Z,99837.84
2023-06-01T01:50:21.313Z,99826.38
2023-06-01T01:52:50.101Z,99822.13
2023-06-01T01:55:19.847Z,99828.50
2023-06-01T01:57:49.700Z,99837.72
2023-06-01T02:00:18.665Z,99822.03
2023-06-01T02:02:47.766Z,99835.56
2023-06-01T02:05:17.298Z,99838.38
2023-06-01T02:07:46.645Z,99831.97
2023-06-01T02:10:14.298Z,99824.97
2023-06-01T02:12:41.632Z,99802.16
2023-06-01T02:15:09.581Z,99817.28
2023-06-01T02:17:40.069Z,99820.63
2023-06-01T02:20:13.624Z,99821.44
2023-06-01T02:22:41.631Z,99822.38
2023-06-01T02:25:10.656Z,99820.69
2023-06-01T02:27:40.053Z,99822.44
2023-06-01T02:30:09.667Z,99817.97
2023-06-01T02:32:38.892Z,99825.22
2023-06-01T02:35:08.744Z,99816.56
2023-06-01T02:37:36.439Z,99809.94
2023-06-01T02:40:29.986Z,99813.53
2023-06-01T02:42:59.669Z,99817.31
2023-06-01T02:45:28.938Z,99808.91
2023-06-01T02:47:56.379Z,99819.94
2023-06-01T02:50:24.892Z,99813.75
2023-06-01T02:52:53.887Z,99819.69
2023-06-01T02:55:40.501Z,99820.75
2023-06-01T02:58:40.631Z,99811.63
2023-06-01T03:01:19.659Z,99812.47
2023-06-01T03:03:48.334Z,99813.03
2023-06-01T03:06:19.065Z,99810.44
2023-06-01T03:09:06.364Z,99820.41
2023-06-01T03:11:50.764Z,99817.69
2023-06-01T03:14:18.693Z,99820.16
2023-06-01T03:16:48.083Z,99817.19
2023-06-01T03:19:38.318Z,99828.22
2023-06-01T03:22:16.023Z,99835.44
2023-06-01T03:24:49.005Z,99829.72
2023-06-01T03:27:20.325Z,99829.03
2023-06-01T03:29:48.128Z,99828.78
2023-06-01T03:32:15.990Z,99831.13
2023-06-01T03:34:44.810Z,99833.47
2023-06-01T03:37:13.344Z,99828.25
2023-06-01T03:39:41.099Z,99822.94
2023-06-01T03:42:12.338Z,99825.03
2023-06-01T03:44:41.978Z,99818.03
2023-06-01T03:47:10.087Z,99821.56
2023-06-01T03:49:44.807Z,99825.69
2023-06-01T03:52:13.770Z,99829.44
2023-06-01T03:54:43.459Z,99827.72
2023-06-01T03:57:26.054Z,99832.81
2023-06-01T03:59:53.633Z,99834.34
2023-06-01T04:02:23.345Z,99822.84
2023-06-01T04:04:51.086Z,99827.06
2023-06-01T04:07:23.015Z,99823.75
2023-06-01T04:09:50.565Z,99833.94
2023-06-01T04:12:18.350Z,99836.19
2023-06-01T04:14:45.742Z,99828.66
2023-06-01T04:17:13.437Z,99828.31
2023-06-01T04:19:41.210Z,99828.56
2023-06-01T04:22:11.581Z,99829.72
2023-06-01T04:24:41.365Z,99824.25
2023-06-01T04:27:09.355Z,99824.25
2023-06-01T04:29:41.262Z,99824.84
2023-06-01T04:32:09.393Z,99827.16
2023-06-01T04:34:39.024Z,99816.81
2023-06-01T04:37:07.715Z,99821.19
2023-06-01T04:39:36.770Z,99831.13
2023-06-01T04:42:05.111Z,99831.47
2023-06-01T04:44:34.931Z,99842.41
2023-06-01T04:47:04.833Z,99834.22
2023-06-01T04:49:32.324Z,99841.00
2023-06-01T04:52:01.448Z,99840.41
2023-06-01T04:54:28.923Z,99837.63
2023-06-01T04:56:56.674Z,99831.13
2023-06-01T04:59:24.038Z,99840.13
2023-06-01T05:01:52.910Z,99840.69
2023-06-01T05:04:22.040Z,99840.63
2023-06-01T05:06:52.250Z,99838.78
2023-06-01T05:09:21.839Z,99836.28
2023-06-01T05:11:49.596Z,99846.44
2023-06-01T05:14:16.976Z,99852.13
2023-06-01T05:16:45.264Z,99849.44
2023-06-01T05:19:14.131Z,99850.13
2023-06-01T05:21:45.086Z,99852.28
2023-06-01T05:24:13.674Z,99865.41
2023-06-01T05:26:41.680Z,99861.66
2023-06-01T05:29:09.084Z,99850.50
2023-06-01T05:31:37.563Z,99853.63
2023-06-01T05:34:07.274Z,99855.03
2023-06-01T05:36:36.824Z,99855.91
2023-06-01T05:39:04.323Z,99849.56
2023-06-01T05:41:31.958Z,99838.59
2023-06-01T05:43:59.489Z,99840.78
2023-06-01T05:46:28.475Z,99842.72
2023-06-01T05:48:56.769Z,99856.78
2023-06-01T05:51:26.795Z,99852.94
2023-06-01T05:53:56.059Z,99844.41
2023-06-01T05:56:24.987Z,99853.47
2023-06-01T05:58:59.908Z,99858.44
2023-06-01T06:01:28.537Z,99857.59
2023-06-01T06:04:01.258Z,99861.47
2023-06-01T06:06:30.065Z,99860.91
2023-06-01T06:08:57.481Z,99859.25
2023-06-01T06:11:28.582Z,99860.84
2023-06-01T06:13:56.034Z,99857.66
2023-06-01T06:16:25.470Z,99868.53
2023-06-01T06:18:55.900Z,99868.53
2023-06-01T06:21:24.877Z,99861.66
2023-06-01T06:23:54.285Z,99867.97
2023-06-01T06:26:21.913Z,99860.25
2023-06-01T06:28:50.588Z,99862.66
2023-06-01T06:31:18.338Z,99867.75
2023-06-01T06:33:46.697Z,99883.22
2023-06-01T06:36:15.578Z,99873.84
2023-06-01T06:38:44.853Z,99863.41
2023-06-01T06:41:15.415Z,99880.97
2023-06-01T06:43:45.074Z,99873.97
2023-06-01T06:46:19.918Z,99880.19
2023-06-01T06:48:49.714Z,99877.69
2023-06-01T06:51:18.291Z,99875.72
2023-06-01T06:53:45.908Z,99885.16
2023-06-01T06:56:13.935Z,99879.94
2023-06-01T06:58:41.258Z,99887.91
2023-06-01T07:03:39.862Z,99867.53
2023-06-01T07:06:10.106Z,99888.22
2023-06-01T07:08:38.442Z,99890.56
2023-06-01T07:11:06.101Z,99885.88
2023-06-01T07:13:33.518Z,99888.31
2023-06-01T07:16:01.776Z,99885.16
2023-06-01T07:18:30.538Z,99884.88
2023-06-01T07:20:59.736Z,99881.59
2023-06-01T07:23:43.093Z,99893.47
2023-06-01T07:26:17.392Z,99882.91
2023-06-01T07:28:45.340Z,99885.91
2023-06-01T07:31:13.278Z,99883.59
2023-06-01T07:33:44.359Z,99877.97
2023-06-01T07:36:15.585Z,99881.31
2023-06-01T07:38:47.707Z,99883.41
2023-06-01T07:41:25.866Z,99887.38
2023-06-01T07:44:27.683Z,99885.28
2023-06-01T07:46:58.942Z,99874.94
2023-06-01T07:49:33.474Z,99885.78
2023-06-01T07:52:09.083Z,99878.59
2023-06-01T07:54:38.430Z,99886.28
2023-06-01T07:57:09.215Z,99888.94
2023-06-01T07:59:36.694Z,99878.81
2023-06-01T08:02:04.597Z,99875.53
2023-06-01T08:04:35.604Z,99877.00
2023-06-01T08:07:04.866Z,99872.94
2023-06-01T08:09:43.738Z,99874.88
2023-06-01T08:12:12.546Z,99868.09
2023-06-01T08:14:41.222Z,99874.59
2023-06-01T08:17:09.585Z,99872.84
2023-06-01T08:19:40.113Z,99866.81
2023-06-01T08:22:38.811Z,99873.34
2023-06-01T08:25:17.312Z,99870.91
2023-06-01T08:28:01.554Z,99870.16
2023-06-01T08:31:02.622Z,99870.34
2023-06-01T08:34:21.124Z,99876.22
2023-06-01T08:37:06.884Z,99872.69
2023-06-01T08:39:47.468Z,99872.13
2023-06-01T08:42:34.724Z,99873.75
2023-06-01T08:45:11.879Z,99864.88
2023-06-01T08:48:00.814Z,99861.81
2023-06-01T08:50:38.605Z,99862.53
2023-06-01T08:53:25.993Z,99857.50
2023-06-01T08:59:21.790Z,99864.78
2023-06-01T09:02:58.252Z,99862.53
2023-06-01T09:05:41.931Z,99868.66
2023-06-01T09:08:14.127Z,99863.41
2023-06-01T09:14:59.179Z,99859.69
2023-06-01T09:18:08.642Z,99844.97
2023-06-01T09:21:04.799Z,99849.53
2023-06-01T09:31:22.223Z,99856.09
2023-06-01T09:34:20.532Z,99840.81
2023-06-01T09:37:23.361Z,99846.00
2023-06-01T09:39:58.488Z,99846.81
2023-06-01T09:42:36.483Z,99837.22
2023-06-01T09:45:24.232Z,99840.94
2023-06-01T09:48:30.183Z,99842.53
2023-06-01T09:51:41.987Z,99847.28
2023-06-01T09:55:01.982Z,99841.75
2023-06-01T09:58:32.195Z,99843.03
2023-06-01T10:04:24.588Z,99838.94
2023-06-01T10:07:30.318Z,99832.31
2023-06-01T10:10:08.763Z,99832.41
2023-06-01T10:12:59.397Z,99833.50
2023-06-01T10:15:32.130Z,99828.13
2023-06-01T10:18:20.866Z,99822.56
2023-06-01T10:20:52.802Z,99816.81
2023-06-01T10:23:30.839Z,99816.44
2023-06-01T10:26:09.709Z,99817.56
2023-06-01T10:28:45.533Z,99810.41
2023-06-01T10:31:48.268Z,99811.06
2023-06-01T10:34:48.690Z,99803.66
2023-06-01T10:40:28.266Z,99796.41
2023-06-01T10:43:12.443Z,99795.28
2023-06-01T10:45:45.648Z,99779.84
2023-06-01T10:48:16.747Z,99770.38
2023-06-01T10:51:37.174Z,99769.31
2023-06-01T10:54:33.175Z,99765.63
2023-06-01T10:57:33.566Z,99770.59
2023-06-01T11:00:40.777Z,99764.00
2023-06-01T11:03:22.459Z,99763.41
2023-06-01T11:06:07.627Z,99757.69
2023-06-01T11:09:00.366Z,99754.91
2023-06-01T11:11:59.746Z,99741.41
2023-06-01T11:14:33.532Z,99745.59
2023-06-01T11:17:29.950Z,99745.88
2023-06-01T11:20:09.131Z,99740.25
2023-06-01T11:22:45.151Z,99729.44
2023-06-01T11:25:19.057Z,99730.50
2023-06-01T11:27:56.960Z,99728.47
2023-06-01T11:30:33.688Z,99719.13
2023-06-01T11:33:08.317Z,99710.97
2023-06-01T11:35:44.001Z,99711.94
2023-06-01T11:38:22.418Z,99716.63
2023-06-01T11:41:09.406Z,99715.03
2023-06-01T11:43:42.795Z,99702.16
2023-06-01T11:46:22.188Z,99697.38
2023-06-01T11:49:06.804Z,99699.00
2023-06-01T11:51:43.412Z,99691.53
2023-06-01T11:54:13.921Z,99688.84
2023-06-01T11:56:48.418Z,99687.59
2023-06-01T11:59:23.790Z,99691.59
2023-06-01T12:01:54.952Z,99685.00
2023-06-01T12:04:26.661Z,99682.56
2023-06-01T12:07:18.474Z,99684.09
2023-06-01T12:09:51.886Z,99671.78
2023-06-01T12:12:27.003Z,99665.16
2023-06-01T12:14:58.837Z,99673.13
2023-06-01T12:17:59.811Z,99666.22
2023-06-01T12:20:40.950Z,99662.84
2023-06-01T12:23:26.402Z,99663.69
2023-06-01T12:26:00.207Z,99660.50
2023-06-01T12:28:30.919Z,99666.03
2023-06-01T12:31:26.403Z,99656.22
2023-06-01T12:34:00.211Z,99667.66
2023-06-01T12:36:40.602Z,99663.03
2023-06-01T12:39:16.486Z,99665.78
2023-06-01T12:41:53.170Z,99656.78
2023-06-01T12:44:59.523Z,99655.03
2023-06-01T12:47:48.055Z,99658.53
2023-06-01T12:50:30.093Z,99631.81
2023-06-01T12:53:01.321Z,99654.72
2023-06-01T12:55:32.657Z,99646.22
2023-06-01T12:58:05.374Z,99642.75
2023-06-01T13:00:56.327Z,99650.88
2023-06-01T13:03:27.173Z,99645.13
2023-06-01T13:05:57.015Z,99639.38
2023-06-01T13:08:31.410Z,99638.38
2023-06-01T13:13:40.759Z,99632.47
2023-06-01T13:16:14.018Z,99630.06
2023-06-01T13:19:05.480Z,99622.94
2023-06-01T13:21:35.232Z,99621.09
2023-06-01T13:24:10.219Z,99630.25
2023-06-01T13:26:40.216Z,99633.53
2023-06-01T13:29:08.623Z,99626.66
2023-06-01T13:31:41.599Z,99631.78
2023-06-01T13:34:15.040Z,99626.97
2023-06-01T13:36:47.462Z,99614.59
2023-06-01T13:39:16.987Z,99592.88
2023-06-01T13:41:47.340Z,99605.16
2023-06-01T13:44:24.166Z,99595.84
2023-06-01T13:47:03.135Z,99600.84
2023-06-01T13:49:32.518Z,99596.16
2023-06-01T13:52:04.789Z,99604.88
2023-06-01T13:54:43.761Z,99597.41
2023-06-01T13:57:36.921Z,99600.94
2023-06-01T14:00:35.248Z,99593.41
2023-06-01T14:03:06.440Z,99603.47
2023-06-01T14:05:51.690Z,99601.75
2023-06-01T14:08:23.972Z,99595.63
2023-06-01T14:10:55.349Z,99602.75
2023-06-01T14:13:23.219Z,99593.19
2023-06-01T14:15:51.441Z,99595.25
2023-06-01T14:18:18.901Z,99591.69
2023-06-01T14:20:49.736Z,99584.63
2023-06-01T14:23:19.920Z,99577.66
2023-06-01T14:25:49.065Z,99587.25
2023-06-01T14:28:16.576Z,99587.25
2023-06-01T14:30:45.003Z,99582.44
2023-06-01T14:33:14.281Z,99573.97
2023-06-01T14:35:43.679Z,99577.22
2023-06-01T14:38:15.912Z,99574.25
2023-06-01T14:40:44.100Z,99561.75
2023-06-01T14:43:15.568Z,99572.59
2023-06-01T14:45:45.042Z,99597.84
2023-06-01T14:48:12.854Z,99601.81
2023-06-01T14:50:40.648Z,99601.50
2023-06-01T14:53:08.918Z,99605.13
2023-06-01T14:55:36.663Z,99606.53
2023-06-01T14:58:04.134Z,99611.75
2023-06-01T15:00:32.174Z,99615.06
2023-06-01T15:03:00.124Z,99595.59
2023-06-01T15:05:27.970Z,99600.25
2023-06-01T15:07:55.332Z,99576.06
2023-06-01T15:10:23.741Z,99572.50
2023-06-01T15:12:53.058Z,99585.97
2023-06-01T15:15:28.677Z,99581.28
2023-06-01T15:17:56.849Z,99570.03
2023-06-01T15:20:30.878Z,99579.63
2023-06-01T15:23:02.773Z,99576.59
2023-06-01T15:25:30.830Z,99579.66
2023-06-01T15:27:58.463Z,99582.66
2023-06-01T15:30:26.739Z,99582.69
2023-06-01T15:33:07.511Z,99585.16
2023-06-01T15:35:38.332Z,99598.63
2023-06-01T15:38:05.982Z,99600.78
2023-06-01T15:40:34.157Z,99583.78
2023-06-01T15:43:02.984Z,99584.84
2023-06-01T15:45:31.582Z,99581.00
2023-06-01T15:47:58.965Z,99585.13
2023-06-01T15:50:27.712Z,99595.81
2023-06-01T15:52:55.031Z,99592.50
2023-06-01T15:55:23.222Z,99589.97
2023-06-01T15:57:50.756Z,99576.53
2023-06-01T16:00:19.107Z,99577.38
2023-06-01T16:02:46.726Z,99566.75
2023-06-01T16:05:15.369Z,99565.59
2023-06-01T16:07:42.631Z,99545.88
2023-06-01T16:10:10.675Z,99553.28
2023-06-01T16:12:37.982Z,99547.25
2023-06-01T16:15:06.210Z,99537.63
2023-06-01T16:17:35.230Z,99527.19
2023-06-01T16:20:07.521Z,99529.94
2023-06-01T16:22:38.095Z,99530.41
2023-06-01T16:25:06.169Z,99528.81
2023-06-01T16:27:34.382Z,99531.56
2023-06-01T16:30:05.656Z,99527.75
2023-06-01T16:32:36.059Z,99529.97
2023-06-01T16:35:04.165Z,99531.06
2023-06-01T16:37:31.415Z,99528.28
2023-06-01T16:40:01.134Z,99531.31
2023-06-01T16:42:29.302Z,99521.06
2023-06-01T16:44:57.326Z,99520.03
2023-06-01T16:47:25.811Z,99511.19
2023-06-01T16:50:20.953Z,99521.09
2023-06-01T16:52:48.470Z,99516.75
2023-06-01T16:55:17.969Z,99519.22
2023-06-01T16:57:50.162Z,99529.94
2023-06-01T17:00:18.646Z,99531.56
2023-06-01T17:02:46.950Z,99526.66
2023-06-01T17:05:14.660Z,99507.97
2023-06-01T17:07:44.240Z,99523.34
2023-06-01T17:10:12.496Z,99522.00
2023-06-01T17:12:42.155Z,99530.50
2023-06-01T17:15:20.267Z,99520.31
2023-06-01T17:17:54.932Z,99526.38
2023-06-01T17:20:30.183Z,99526.09
2023-06-01T17:23:02.422Z,99532.69
2023-06-01T17:25:37.336Z,99528.56
2023-06-01T17:28:14.669Z,99528.28
2023-06-01T17:30:45.162Z,99531.03
2023-06-01T17:33:17.218Z,99530.50
2023-06-01T17:35:55.513Z,99522.81
2023-06-01T17:38:28.766Z,99529.13
2023-06-01T17:41:01.027Z,99514.00
2023-06-01T17:43:31.277Z,99531.03
2023-06-01T17:46:02.021Z,99531.50
2023-06-01T17:48:31.854Z,99520.56
2023-06-01T17:51:02.890Z,99531.00
2023-06-01T17:53:41.535Z,99524.41
2023-06-01T17:56:12.496Z,99524.72
2023-06-01T17:58:41.616Z,99527.19
2023-06-01T18:01:17.085Z,99539.81
2023-06-01T18:03:52.371Z,99520.31
2023-06-01T18:06:21.507Z,99523.28
2023-06-01T18:08:56.286Z,99528.72
2023-06-01T18:11:28.547Z,99533.13
2023-06-01T18:14:03.124Z,99529.28
2023-06-01T18:16:35.414Z,99518.84
2023-06-01T18:19:05.746Z,99516.53
2023-06-01T18:21:43.783Z,99519.06
2023-06-01T18:24:20.202Z,99521.25
2023-06-01T18:26:54.320Z,99527.63
2023-06-01T18:29:29.785Z,99530.31
2023-06-01T18:32:02.053Z,99526.72
2023-06-01T18:34:29.885Z,99528.59
2023-06-01T18:36:59.932Z,99524.09
2023-06-01T18:39:39.519Z,99530.06
2023-06-01T18:42:09.402Z,99526.41
2023-06-01T18:44:39.628Z,99529.06
2023-06-01T18:47:10.591Z,99530.38
2023-06-01T18:49:46.454Z,99528.66
2023-06-01T18:52:20.481Z,99541.09
2023-06-01T18:54:49.702Z,99536.97
2023-06-01T18:57:42.759Z,99544.56
2023-06-01T19:00:25.063Z,99537.44
2023-06-01T19:03:07.360Z,99542.94
2023-06-01T19:05:38.960Z,99547.28
2023-06-01T19:08:09.679Z,99553.56
2023-06-01T19:10:48.238Z,99540.06
2023-06-01T19:13:19.196Z,99538.31
2023-06-01T19:16:26.965Z,99543.00
2023-06-01T19:19:01.262Z,99543.28
2023-06-01T19:21:33.946Z,99531.41
2023-06-01T19:24:06.842Z,99542.56
2023-06-01T19:26:38.024Z,99533.66
2023-06-01T19:29:08.113Z,99535.75
2023-06-01T19:31:45.146Z,99538.13
2023-06-01T19:34:15.002Z,99523.53
2023-06-01T19:36:55.721Z,99542.88
2023-06-01T19:39:33.244Z,99543.53
2023-06-01T19:42:30.610Z,99539.88
2023-06-01T19:45:01.580Z,99537.41
2023-06-01T19:47:36.000Z,99528.69
2023-06-01T19:50:17.396Z,99539.31
2023-06-01T19:52:45.774Z,99539.56
2023-06-01T19:55:13.518Z,99529.00
2023-06-01T19:57:41.124Z,99528.00
2023-06-01T20:00:09.956Z,99526.59
2023-06-01T20:02:49.319Z,99535.44
2023-06-01T20:05:23.554Z,99517.25
2023-06-01T20:08:02.596Z,99530.47
2023-06-01T20:10:33.554Z,99516.78
2023-06-01T20:13:06.832Z,99527.69
2023-06-01T20:15:41.887Z,99519.69
2023-06-01T20:18:09.514Z,99513.88
2023-06-01T20:20:41.657Z,99520.66
2023-06-01T20:23:31.226Z,99522.53
2023-06-01T20:26:02.531Z,99514.00
2023-06-01T20:28:45.446Z,99511.88
2023-06-01T20:31:17.438Z,99509.72
2023-06-01T20:33:44.951Z,99518.19
2023-06-01T20:36:13.067Z,99515.28
2023-06-01T20:38:43.624Z,99514.22
2023-06-01T20:41:17.702Z,99513.94
2023-06-01T20:43:47.884Z,99518.41
2023-06-01T20:46:15.711Z,99525.09
2023-06-01T20:48:49.165Z,99518.38
2023-06-01T20:51:34.809Z,99490.41
2023-06-01T20:54:07.523Z,99509.94
2023-06-01T20:56:40.280Z,99494.25
2023-06-01T20:59:18.318Z,99516.34
2023-06-01T21:01:49.605Z,99509.78
2023-06-01T21:04:19.655Z,99505.66
2023-06-01T21:06:50.148Z,99509.59
2023-06-01T21:09:22.976Z,99507.38
2023-06-01T21:11:52.783Z,99513.13
2023-06-01T21:14:22.062Z,99505.38
2023-06-01T21:16:49.959Z,99514.97
2023-06-01T21:19:19.598Z,99506.78
2023-06-01T21:21:50.591Z,99511.66
2023-06-01T21:24:18.110Z,99510.31
2023-06-01T21:26:46.974Z,99512.78
2023-06-01T21:29:14.405Z,99503.31
2023-06-01T21:31:42.138Z,99501.53
2023-06-01T21:34:09.597Z,99504.25
2023-06-01T21:36:38.185Z,99496.63
2023-06-01T21:39:05.573Z,99501.00
2023-06-01T21:41:34.455Z,99506.72
2023-06-01T21:44:03.922Z,99497.06
2023-06-01T21:46:31.873Z,99507.25
2023-06-01T21:48:59.463Z,99510.88
2023-06-01T21:51:27.225Z,99513.00
2023-06-01T21:53:55.600Z,99508.19
2023-06-01T21:56:23.336Z,99492.19
2023-06-01T21:58:50.697Z,99505.28
2023-06-01T22:01:22.823Z,99498.22
2023-06-01T22:03:50.464Z,99519.53
2023-06-01T22:06:19.517Z,99506.13
2023-06-01T22:08:47.116Z,99497.75
2023-06-01T22:11:14.776Z,99481.53
2023-06-01T22:13:42.251Z,99498.34
2023-06-01T22:16:10.011Z,99495.38
2023-06-01T22:18:38.836Z,99501.47
2023-06-01T22:21:06.639Z,99486.91
2023-06-01T22:23:34.135Z,99495.47
2023-06-01T22:26:01.801Z,99488.13
2023-06-01T22:28:29.518Z,99490.78
2023-06-01T22:30:57.519Z,99490.88
2023-06-01T22:33:25.725Z,99483.81
2023-06-01T22:35:54.293Z,99484.25
2023-06-01T22:38:21.750Z,99472.81
2023-06-01T22:40:49.765Z,99484.25
2023-06-01T22:43:17.435Z,99485.00
2023-06-01T22:45:45.109Z,99476.69
2023-06-01T22:48:13.350Z,99486.56
2023-06-01T22:50:41.600Z,99470.38
2023-06-01T22:53:09.478Z,99469.19
2023-06-01T22:55:37.636Z,99475.28
2023-06-01T22:58:04.980Z,99472.44
2023-06-01T23:00:32.828Z,99469.34
2023-06-01T23:03:00.347Z,99468.19
2023-06-01T23:05:30.402Z,99482.25
2023-06-01T23:07:57.976Z,99470.06
2023-06-01T23:10:29.536Z,99474.03
2023-06-01T23:12:58.159Z,99465.53
2023-06-01T23:15:25.855Z,99449.47
2023-06-01T23:17:54.886Z,99463.13
2023-06-01T23:20:26.145Z,99461.97
2023-06-01T23:22:54.439Z,99464.31
2023-06-01T23:25:22.159Z,99459.88
2023-06-01T23:27:49.495Z,99468.28
2023-06-01T23:30:17.411Z,99475.19
2023-06-01T23:32:44.802Z,99452.94
2023-06-01T23:35:12.711Z,99466.56
2023-06-01T23:37:40.107Z,99448.97
2023-06-01T23:40:11.202Z,99467.41
2023-06-01T23:42:41.183Z,99459.41
2023-06-01T23:45:09.496Z,99463.28
2023-06-01T23:47:39.669Z,99452.56
2023-06-01T23:50:09.180Z,99453.16
2023-06-01T23:52:40.700Z,99450.94
2023-06-01T23:55:09.823Z,99452.50
2023-06-01T23:57:37.124Z,99438.56
